sensor_id;sensor_type;location;lat;lon;timestamp;temperature;humidity
3794;DHT22;1912;51.358;12.282;2022-07-23T00:01:21;20.70;1.00
3794;DHT22;1912;51.358;12.282;2022-07-23T00:03:47;20.70;1.00
3794;DHT22;1912;51.358;12.282;2022-07-23T00:06:13;20.70;1.00
3794;DHT22;1912;51.358;12.282;2022-07-23T00:08:39;20.70;1.00
3794;DHT22;1912;51.358;12.282;2022-07-23T00:11:05;20.50;1.00
3794;DHT22;1912;51.358;12.282;2022-07-23T00:13:31;20.50;1.00
3794;DHT22;1912;51.358;12.282;2022-07-23T00:15:56;20.40;1.00
3794;DHT22;1912;51.358;12.282;2022-07-23T00:18:22;20.40;1.00
3794;DHT22;1912;51.358;12.282;2022-07-23T00:24:29;20.50;1.00
3794;DHT22;1912;51.358;12.282;2022-07-23T00:26:54;20.40;1.00
3794;DHT22;1912;51.358;12.282;2022-07-23T00:29:20;20.30;1.00
3794;DHT22;1912;51.358;12.282;2022-07-23T00:31:46;20.30;1.00
3794;DHT22;1912;51.358;12.282;2022-07-23T00:34:11;20.30;1.00
3794;DHT22;1912;51.358;12.282;2022-07-23T00:36:37;20.20;1.00
3794;DHT22;1912;51.358;12.282;2022-07-23T00:39:03;20.10;1.00
3794;DHT22;1912;51.358;12.282;2022-07-23T00:41:29;20.00;1.00
3794;DHT22;1912;51.358;12.282;2022-07-23T00:43:55;20.10;1.00
3794;DHT22;1912;51.358;12.282;2022-07-23T00:46:22;20.10;1.00
3794;DHT22;1912;51.358;12.282;2022-07-23T00:48:48;20.10;1.00
3794;DHT22;1912;51.358;12.282;2022-07-23T00:51:17;20.00;1.00
3794;DHT22;1912;51.358;12.282;2022-07-23T00:53:44;19.90;1.00
3794;DHT22;1912;51.358;12.282;2022-07-23T00:56:10;20.10;1.00
3794;DHT22;1912;51.358;12.282;2022-07-23T00:58:36;20.10;1.00
3794;DHT22;1912;51.358;12.282;2022-07-23T01:04:45;20.10;1.00
3794;DHT22;1912;51.358;12.282;2022-07-23T01:07:11;20.20;1.00
3794;DHT22;1912;51.358;12.282;2022-07-23T01:09:37;20.20;1.00
3794;DHT22;1912;51.358;12.282;2022-07-23T01:12:03;20.10;1.00
3794;DHT22;1912;51.358;12.282;2022-07-23T01:14:29;20.00;1.00
3794;DHT22;1912;51.358;12.282;2022-07-23T01:16:55;19.90;1.00
3794;DHT22;1912;51.358;12.282;2022-07-23T01:19:20;20.00;1.00
3794;DHT22;1912;51.358;12.282;2022-07-23T01:21:48;19.90;1.00
3794;DHT22;1912;51.358;12.282;2022-07-23T01:24:16;19.80;1.00
3794;DHT22;1912;51.358;12.282;2022-07-23T01:26:45;19.90;1.00
3794;DHT22;1912;51.358;12.282;2022-07-23T01:29:12;20.00;1.00
3794;DHT22;1912;51.358;12.282;2022-07-23T01:31:38;20.00;1.00
3794;DHT22;1912;51.358;12.282;2022-07-23T01:34:04;20.10;1.00
3794;DHT22;1912;51.358;12.282;2022-07-23T01:36:32;20.00;1.00
3794;DHT22;1912;51.358;12.282;2022-07-23T01:38:59;19.80;1.00
3794;DHT22;1912;51.358;12.282;2022-07-23T01:41:24;19.90;1.00
3794;DHT22;1912;51.358;12.282;2022-07-23T01:43:50;19.80;1.00
3794;DHT22;1912;51.358;12.282;2022-07-23T01:46:16;19.70;1.00
3794;DHT22;1912;51.358;12.282;2022-07-23T01:48:42;19.70;1.00
3794;DHT22;1912;51.358;12.282;2022-07-23T01:51:08;19.80;1.00
3794;DHT22;1912;51.358;12.282;2022-07-23T01:53:34;19.90;1.00
3794;DHT22;1912;51.358;12.282;2022-07-23T01:56:00;19.90;1.00
3794;DHT22;1912;51.358;12.282;2022-07-23T01:58:26;19.90;1.00
3794;DHT22;1912;51.358;12.282;2022-07-23T02:04:33;19.90;1.00
3794;DHT22;1912;51.358;12.282;2022-07-23T02:07:02;19.80;1.00
3794;DHT22;1912;51.358;12.282;2022-07-23T02:09:28;19.90;1.00
3794;DHT22;1912;51.358;12.282;2022-07-23T02:11:54;19.90;1.00
3794;DHT22;1912;51.358;12.282;2022-07-23T02:14:19;19.90;1.00
3794;DHT22;1912;51.358;12.282;2022-07-23T02:16:45;19.80;1.00
3794;DHT22;1912;51.358;12.282;2022-07-23T02:19:11;19.60;1.00
3794;DHT22;1912;51.358;12.282;2022-07-23T02:21:36;19.60;1.00
3794;DHT22;1912;51.358;12.282;2022-07-23T02:24:02;19.60;1.00
3794;DHT22;1912;51.358;12.282;2022-07-23T02:26:29;19.60;1.00
3794;DHT22;1912;51.358;12.282;2022-07-23T02:28:54;19.40;1.00
3794;DHT22;1912;51.358;12.282;2022-07-23T02:31:20;19.40;1.00
3794;DHT22;1912;51.358;12.282;2022-07-23T02:33:46;19.40;1.00
3794;DHT22;1912;51.358;12.282;2022-07-23T02:36:12;19.40;1.00
3794;DHT22;1912;51.358;12.282;2022-07-23T02:38:38;19.40;1.00
3794;DHT22;1912;51.358;12.282;2022-07-23T02:41:04;19.40;1.00
3794;DHT22;1912;51.358;12.282;2022-07-23T02:43:29;19.30;1.00
3794;DHT22;1912;51.358;12.282;2022-07-23T02:45:55;19.30;1.00
3794;DHT22;1912;51.358;12.282;2022-07-23T02:48:20;19.40;1.00
3794;DHT22;1912;51.358;12.282;2022-07-23T02:50:46;19.30;1.00
3794;DHT22;1912;51.358;12.282;2022-07-23T02:53:12;19.30;1.00
3794;DHT22;1912;51.358;12.282;2022-07-23T02:55:37;19.20;1.00
3794;DHT22;1912;51.358;12.282;2022-07-23T02:58:03;19.20;1.00
3794;DHT22;1912;51.358;12.282;2022-07-23T03:04:09;19.10;1.00
3794;DHT22;1912;51.358;12.282;2022-07-23T03:06:35;19.10;1.00
3794;DHT22;1912;51.358;12.282;2022-07-23T03:09:02;19.00;1.00
3794;DHT22;1912;51.358;12.282;2022-07-23T03:11:28;19.10;1.00
3794;DHT22;1912;51.358;12.282;2022-07-23T03:13:54;19.10;1.00
3794;DHT22;1912;51.358;12.282;2022-07-23T03:16:20;19.00;1.00
3794;DHT22;1912;51.358;12.282;2022-07-23T03:18:45;19.10;1.00
3794;DHT22;1912;51.358;12.282;2022-07-23T03:21:11;18.90;1.00
3794;DHT22;1912;51.358;12.282;2022-07-23T03:23:37;18.80;1.00
3794;DHT22;1912;51.358;12.282;2022-07-23T03:26:03;18.80;1.00
3794;DHT22;1912;51.358;12.282;2022-07-23T03:28:29;18.80;1.00
3794;DHT22;1912;51.358;12.282;2022-07-23T03:30:54;18.70;1.00
3794;DHT22;1912;51.358;12.282;2022-07-23T03:33:21;18.70;1.00
3794;DHT22;1912;51.358;12.282;2022-07-23T03:35:47;18.60;1.00
3794;DHT22;1912;51.358;12.282;2022-07-23T03:38:14;18.50;1.00
3794;DHT22;1912;51.358;12.282;2022-07-23T03:44:21;18.60;1.00
3794;DHT22;1912;51.358;12.282;2022-07-23T03:46:46;18.60;1.00
3794;DHT22;1912;51.358;12.282;2022-07-23T03:49:12;18.60;1.00
3794;DHT22;1912;51.358;12.282;2022-07-23T03:51:38;18.60;1.00
3794;DHT22;1912;51.358;12.282;2022-07-23T03:54:03;18.70;1.00
3794;DHT22;1912;51.358;12.282;2022-07-23T03:56:29;18.80;1.00
3794;DHT22;1912;51.358;12.282;2022-07-23T03:58:55;18.80;1.00
3794;DHT22;1912;51.358;12.282;2022-07-23T04:01:20;18.90;1.00
3794;DHT22;1912;51.358;12.282;2022-07-23T04:03:46;18.90;1.00
3794;DHT22;1912;51.358;12.282;2022-07-23T04:06:12;18.80;1.00
3794;DHT22;1912;51.358;12.282;2022-07-23T04:08:38;18.70;1.00
3794;DHT22;1912;51.358;12.282;2022-07-23T04:11:03;18.20;1.00
3794;DHT22;1912;51.358;12.282;2022-07-23T04:13:29;18.00;1.00
3794;DHT22;1912;51.358;12.282;2022-07-23T04:15:55;17.90;1.00
3794;DHT22;1912;51.358;12.282;2022-07-23T04:18:20;18.00;1.00
3794;DHT22;1912;51.358;12.282;2022-07-23T04:24:29;17.90;1.00
3794;DHT22;1912;51.358;12.282;2022-07-23T04:26:55;17.80;1.00
3794;DHT22;1912;51.358;12.282;2022-07-23T04:29:20;17.90;1.00
3794;DHT22;1912;51.358;12.282;2022-07-23T04:31:46;18.00;1.00
3794;DHT22;1912;51.358;12.282;2022-07-23T04:34:12;18.10;1.00
3794;DHT22;1912;51.358;12.282;2022-07-23T04:36:37;18.10;1.00
3794;DHT22;1912;51.358;12.282;2022-07-23T04:39:03;18.00;1.00
3794;DHT22;1912;51.358;12.282;2022-07-23T04:41:29;18.00;1.00
3794;DHT22;1912;51.358;12.282;2022-07-23T04:43:54;17.80;1.00
3794;DHT22;1912;51.358;12.282;2022-07-23T04:46:20;17.50;1.00
3794;DHT22;1912;51.358;12.282;2022-07-23T04:48:46;17.30;1.00
3794;DHT22;1912;51.358;12.282;2022-07-23T04:54:52;17.00;1.00
3794;DHT22;1912;51.358;12.282;2022-07-23T04:57:18;17.10;1.00
3794;DHT22;1912;51.358;12.282;2022-07-23T04:59:43;17.20;1.00
3794;DHT22;1912;51.358;12.282;2022-07-23T05:02:09;17.20;1.00
3794;DHT22;1912;51.358;12.282;2022-07-23T05:04:34;17.20;1.00
3794;DHT22;1912;51.358;12.282;2022-07-23T05:07:00;17.20;1.00
3794;DHT22;1912;51.358;12.282;2022-07-23T05:09:26;17.10;1.00
3794;DHT22;1912;51.358;12.282;2022-07-23T05:11:51;17.10;1.00
3794;DHT22;1912;51.358;12.282;2022-07-23T05:14:17;17.00;1.00
3794;DHT22;1912;51.358;12.282;2022-07-23T05:16:43;17.10;1.00
3794;DHT22;1912;51.358;12.282;2022-07-23T05:19:08;17.10;1.00
3794;DHT22;1912;51.358;12.282;2022-07-23T05:21:34;17.30;1.00
3794;DHT22;1912;51.358;12.282;2022-07-23T05:24:00;17.30;1.00
3794;DHT22;1912;51.358;12.282;2022-07-23T05:26:26;17.40;1.00
3794;DHT22;1912;51.358;12.282;2022-07-23T05:28:51;17.40;1.00
3794;DHT22;1912;51.358;12.282;2022-07-23T05:31:17;17.30;1.00
3794;DHT22;1912;51.358;12.282;2022-07-23T05:33:43;17.40;1.00
3794;DHT22;1912;51.358;12.282;2022-07-23T05:36:09;17.40;1.00
3794;DHT22;1912;51.358;12.282;2022-07-23T05:38:35;17.40;1.00
3794;DHT22;1912;51.358;12.282;2022-07-23T05:41:01;17.40;1.00
3794;DHT22;1912;51.358;12.282;2022-07-23T05:43:28;17.30;1.00
3794;DHT22;1912;51.358;12.282;2022-07-23T05:45:54;17.40;1.00
3794;DHT22;1912;51.358;12.282;2022-07-23T05:48:20;17.50;1.00
3794;DHT22;1912;51.358;12.282;2022-07-23T05:50:46;17.50;1.00
3794;DHT22;1912;51.358;12.282;2022-07-23T05:53:12;17.50;1.00
3794;DHT22;1912;51.358;12.282;2022-07-23T05:55:38;17.40;1.00
3794;DHT22;1912;51.358;12.282;2022-07-23T05:58:04;17.50;1.00
3794;DHT22;1912;51.358;12.282;2022-07-23T06:00:30;17.60;1.00
3794;DHT22;1912;51.358;12.282;2022-07-23T06:02:56;17.60;1.00
3794;DHT22;1912;51.358;12.282;2022-07-23T06:05:22;17.50;1.00
3794;DHT22;1912;51.358;12.282;2022-07-23T06:07:48;17.50;1.00
3794;DHT22;1912;51.358;12.282;2022-07-23T06:10:14;17.60;1.00
3794;DHT22;1912;51.358;12.282;2022-07-23T06:12:40;17.60;1.00
3794;DHT22;1912;51.358;12.282;2022-07-23T06:15:06;17.50;1.00
3794;DHT22;1912;51.358;12.282;2022-07-23T06:17:32;17.60;1.00
3794;DHT22;1912;51.358;12.282;2022-07-23T06:19:58;17.60;1.00
3794;DHT22;1912;51.358;12.282;2022-07-23T06:22:24;17.70;1.00
3794;DHT22;1912;51.358;12.282;2022-07-23T06:24:50;17.70;1.00
3794;DHT22;1912;51.358;12.282;2022-07-23T06:27:17;17.60;1.00
3794;DHT22;1912;51.358;12.282;2022-07-23T06:29:43;17.70;1.00
3794;DHT22;1912;51.358;12.282;2022-07-23T06:32:09;17.80;1.00
3794;DHT22;1912;51.358;12.282;2022-07-23T06:34:35;17.90;1.00
3794;DHT22;1912;51.358;12.282;2022-07-23T06:37:00;18.20;1.00
3794;DHT22;1912;51.358;12.282;2022-07-23T06:39:26;18.60;1.00
3794;DHT22;1912;51.358;12.282;2022-07-23T06:41:52;18.70;1.00
3794;DHT22;1912;51.358;12.282;2022-07-23T06:44:18;18.60;1.00
3794;DHT22;1912;51.358;12.282;2022-07-23T06:46:43;18.60;1.00
3794;DHT22;1912;51.358;12.282;2022-07-23T06:49:09;18.40;1.00
3794;DHT22;1912;51.358;12.282;2022-07-23T06:51:35;18.40;1.00
3794;DHT22;1912;51.358;12.282;2022-07-23T06:54:01;18.60;1.00
3794;DHT22;1912;51.358;12.282;2022-07-23T06:56:27;18.50;1.00
3794;DHT22;1912;51.358;12.282;2022-07-23T06:58:53;18.50;1.00
3794;DHT22;1912;51.358;12.282;2022-07-23T07:01:19;18.40;1.00
3794;DHT22;1912;51.358;12.282;2022-07-23T07:03:45;18.40;1.00
3794;DHT22;1912;51.358;12.282;2022-07-23T07:06:10;18.50;1.00
3794;DHT22;1912;51.358;12.282;2022-07-23T07:08:36;18.50;1.00
3794;DHT22;1912;51.358;12.282;2022-07-23T07:11:03;18.50;1.00
3794;DHT22;1912;51.358;12.282;2022-07-23T07:13:28;18.50;1.00
3794;DHT22;1912;51.358;12.282;2022-07-23T07:15:54;18.50;1.00
3794;DHT22;1912;51.358;12.282;2022-07-23T07:18:20;18.50;1.00
3794;DHT22;1912;51.358;12.282;2022-07-23T07:20:45;18.50;1.00
3794;DHT22;1912;51.358;12.282;2022-07-23T07:23:12;18.60;1.00
3794;DHT22;1912;51.358;12.282;2022-07-23T07:25:38;18.70;1.00
3794;DHT22;1912;51.358;12.282;2022-07-23T07:28:04;18.60;1.00
3794;DHT22;1912;51.358;12.282;2022-07-23T07:30:29;18.60;1.00
3794;DHT22;1912;51.358;12.282;2022-07-23T07:32:55;18.50;1.00
3794;DHT22;1912;51.358;12.282;2022-07-23T07:35:21;18.60;1.00
3794;DHT22;1912;51.358;12.282;2022-07-23T07:37:46;18.60;1.00
3794;DHT22;1912;51.358;12.282;2022-07-23T07:40:12;18.60;1.00
3794;DHT22;1912;51.358;12.282;2022-07-23T07:42:48;18.70;1.00
3794;DHT22;1912;51.358;12.282;2022-07-23T07:45:16;18.70;1.00
3794;DHT22;1912;51.358;12.282;2022-07-23T07:47:41;18.70;1.00
3794;DHT22;1912;51.358;12.282;2022-07-23T07:50:07;18.80;1.00
3794;DHT22;1912;51.358;12.282;2022-07-23T07:52:35;18.90;1.00
3794;DHT22;1912;51.358;12.282;2022-07-23T07:55:04;19.00;1.00
3794;DHT22;1912;51.358;12.282;2022-07-23T07:57:31;19.10;1.00
3794;DHT22;1912;51.358;12.282;2022-07-23T07:59:57;19.10;1.00
3794;DHT22;1912;51.358;12.282;2022-07-23T08:02:22;19.10;1.00
3794;DHT22;1912;51.358;12.282;2022-07-23T08:04:48;19.20;1.00
3794;DHT22;1912;51.358;12.282;2022-07-23T08:07:14;19.10;1.00
3794;DHT22;1912;51.358;12.282;2022-07-23T08:09:40;19.10;1.00
3794;DHT22;1912;51.358;12.282;2022-07-23T08:12:07;19.20;1.00
3794;DHT22;1912;51.358;12.282;2022-07-23T08:14:33;19.30;1.00
3794;DHT22;1912;51.358;12.282;2022-07-23T08:16:59;19.60;1.00
3794;DHT22;1912;51.358;12.282;2022-07-23T08:19:25;19.70;1.00
3794;DHT22;1912;51.358;12.282;2022-07-23T08:21:51;19.60;1.00
3794;DHT22;1912;51.358;12.282;2022-07-23T08:24:16;19.60;1.00
3794;DHT22;1912;51.358;12.282;2022-07-23T08:26:42;19.80;1.00
3794;DHT22;1912;51.358;12.282;2022-07-23T08:29:08;19.80;1.00
3794;DHT22;1912;51.358;12.282;2022-07-23T08:31:34;20.00;1.00
3794;DHT22;1912;51.358;12.282;2022-07-23T08:34:00;19.90;1.00
3794;DHT22;1912;51.358;12.282;2022-07-23T08:36:26;19.90;1.00
3794;DHT22;1912;51.358;12.282;2022-07-23T08:39:00;19.70;1.00
3794;DHT22;1912;51.358;12.282;2022-07-23T08:41:28;19.80;1.00
3794;DHT22;1912;51.358;12.282;2022-07-23T08:43:54;19.80;1.00
3794;DHT22;1912;51.358;12.282;2022-07-23T08:46:20;19.70;1.00
3794;DHT22;1912;51.358;12.282;2022-07-23T08:48:48;19.60;1.00
3794;DHT22;1912;51.358;12.282;2022-07-23T08:51:14;19.60;1.00
3794;DHT22;1912;51.358;12.282;2022-07-23T08:53:40;19.60;1.00
3794;DHT22;1912;51.358;12.282;2022-07-23T08:56:07;19.80;1.00
3794;DHT22;1912;51.358;12.282;2022-07-23T08:58:32;19.90;1.00
3794;DHT22;1912;51.358;12.282;2022-07-23T09:04:39;19.80;1.00
3794;DHT22;1912;51.358;12.282;2022-07-23T09:07:05;19.60;1.00
3794;DHT22;1912;51.358;12.282;2022-07-23T09:09:30;19.40;1.00
3794;DHT22;1912;51.358;12.282;2022-07-23T09:12:07;19.20;1.00
3794;DHT22;1912;51.358;12.282;2022-07-23T09:14:41;19.30;1.00
3794;DHT22;1912;51.358;12.282;2022-07-23T09:17:12;19.40;1.00
3794;DHT22;1912;51.358;12.282;2022-07-23T09:19:40;19.60;1.00
3794;DHT22;1912;51.358;12.282;2022-07-23T09:22:18;19.50;1.00
3794;DHT22;1912;51.358;12.282;2022-07-23T09:28:05;19.70;1.00
3794;DHT22;1912;51.358;12.282;2022-07-23T09:30:32;19.70;1.00
3794;DHT22;1912;51.358;12.282;2022-07-23T09:33:08;19.70;1.00
3794;DHT22;1912;51.358;12.282;2022-07-23T09:35:55;19.70;1.00
3794;DHT22;1912;51.358;12.282;2022-07-23T09:38:23;19.80;1.00
3794;DHT22;1912;51.358;12.282;2022-07-23T09:41:09;19.80;1.00
3794;DHT22;1912;51.358;12.282;2022-07-23T09:43:35;19.90;1.00
3794;DHT22;1912;51.358;12.282;2022-07-23T09:46:25;19.90;1.00
3794;DHT22;1912;51.358;12.282;2022-07-23T09:48:52;19.90;1.00
3794;DHT22;1912;51.358;12.282;2022-07-23T09:55:01;19.70;1.00
3794;DHT22;1912;51.358;12.282;2022-07-23T09:57:28;19.60;1.00
3794;DHT22;1912;51.358;12.282;2022-07-23T10:00:00;19.70;1.00
3794;DHT22;1912;51.358;12.282;2022-07-23T10:02:28;19.80;1.00
3794;DHT22;1912;51.358;12.282;2022-07-23T10:04:54;19.70;1.00
3794;DHT22;1912;51.358;12.282;2022-07-23T10:07:21;19.60;1.00
3794;DHT22;1912;51.358;12.282;2022-07-23T10:09:50;19.60;1.00
3794;DHT22;1912;51.358;12.282;2022-07-23T10:12:19;19.60;1.00
3794;DHT22;1912;51.358;12.282;2022-07-23T10:15:12;19.70;1.00
3794;DHT22;1912;51.358;12.282;2022-07-23T10:17:38;19.90;1.00
3794;DHT22;1912;51.358;12.282;2022-07-23T10:20:04;20.00;1.00
3794;DHT22;1912;51.358;12.282;2022-07-23T10:22:35;20.20;1.00
3794;DHT22;1912;51.358;12.282;2022-07-23T10:25:40;20.10;1.00
3794;DHT22;1912;51.358;12.282;2022-07-23T10:28:40;19.90;1.00
3794;DHT22;1912;51.358;12.282;2022-07-23T10:31:26;20.20;1.00
3794;DHT22;1912;51.358;12.282;2022-07-23T10:34:15;20.10;1.00
3794;DHT22;1912;51.358;12.282;2022-07-23T10:36:51;20.10;1.00
3794;DHT22;1912;51.358;12.282;2022-07-23T10:39:25;20.00;1.00
3794;DHT22;1912;51.358;12.282;2022-07-23T10:42:14;20.10;1.00
3794;DHT22;1912;51.358;12.282;2022-07-23T10:44:43;19.90;1.00
3794;DHT22;1912;51.358;12.282;2022-07-23T10:47:10;19.80;1.00
3794;DHT22;1912;51.358;12.282;2022-07-23T10:49:42;19.80;1.00
3794;DHT22;1912;51.358;12.282;2022-07-23T10:54:40;20.20;1.00
3794;DHT22;1912;51.358;12.282;2022-07-23T10:57:27;20.40;1.00
3794;DHT22;1912;51.358;12.282;2022-07-23T11:02:33;20.60;1.00
3794;DHT22;1912;51.358;12.282;2022-07-23T11:05:05;20.80;1.00
3794;DHT22;1912;51.358;12.282;2022-07-23T11:07:34;20.80;1.00
3794;DHT22;1912;51.358;12.282;2022-07-23T11:10:00;20.70;1.00
3794;DHT22;1912;51.358;12.282;2022-07-23T11:15:14;20.80;1.00
3794;DHT22;1912;51.358;12.282;2022-07-23T11:25:28;20.70;1.00
3794;DHT22;1912;51.358;12.282;2022-07-23T11:28:11;20.90;1.00
3794;DHT22;1912;51.358;12.282;2022-07-23T11:30:46;21.10;1.00
3794;DHT22;1912;51.358;12.282;2022-07-23T11:35:43;21.20;1.00
3794;DHT22;1912;51.358;12.282;2022-07-23T11:38:23;21.30;1.00
3794;DHT22;1912;51.358;12.282;2022-07-23T11:44:31;21.80;1.00
3794;DHT22;1912;51.358;12.282;2022-07-23T11:46:59;21.60;1.00
3794;DHT22;1912;51.358;12.282;2022-07-23T11:49:26;21.30;1.00
3794;DHT22;1912;51.358;12.282;2022-07-23T11:54:30;21.40;1.00
3794;DHT22;1912;51.358;12.282;2022-07-23T11:57:00;21.60;1.00
3794;DHT22;1912;51.358;12.282;2022-07-23T11:59:30;21.80;1.00
3794;DHT22;1912;51.358;12.282;2022-07-23T12:02:02;21.90;1.00
3794;DHT22;1912;51.358;12.282;2022-07-23T12:04:45;22.10;1.00
3794;DHT22;1912;51.358;12.282;2022-07-23T12:07:32;22.40;1.00
3794;DHT22;1912;51.358;12.282;2022-07-23T12:10:23;22.50;1.00
3794;DHT22;1912;51.358;12.282;2022-07-23T12:12:58;22.60;1.00
3794;DHT22;1912;51.358;12.282;2022-07-23T12:15:36;22.80;1.00
3794;DHT22;1912;51.358;12.282;2022-07-23T12:18:05;22.90;1.00
3794;DHT22;1912;51.358;12.282;2022-07-23T12:20:35;23.10;1.00
3794;DHT22;1912;51.358;12.282;2022-07-23T12:23:05;23.20;1.00
3794;DHT22;1912;51.358;12.282;2022-07-23T12:25:38;23.40;1.00
3794;DHT22;1912;51.358;12.282;2022-07-23T12:28:12;23.30;1.00
3794;DHT22;1912;51.358;12.282;2022-07-23T12:30:51;23.40;1.00
3794;DHT22;1912;51.358;12.282;2022-07-23T12:33:27;23.20;1.00
3794;DHT22;1912;51.358;12.282;2022-07-23T12:35:58;23.30;1.00
3794;DHT22;1912;51.358;12.282;2022-07-23T12:38:26;23.30;1.00
3794;DHT22;1912;51.358;12.282;2022-07-23T12:40:55;23.30;1.00
3794;DHT22;1912;51.358;12.282;2022-07-23T12:43:23;23.30;1.00
3794;DHT22;1912;51.358;12.282;2022-07-23T12:46:07;23.00;1.00
3794;DHT22;1912;51.358;12.282;2022-07-23T12:48:53;23.00;1.00
3794;DHT22;1912;51.358;12.282;2022-07-23T12:51:26;23.00;1.00
3794;DHT22;1912;51.358;12.282;2022-07-23T12:53:56;22.80;1.00
3794;DHT22;1912;51.358;12.282;2022-07-23T12:56:32;23.00;1.00
3794;DHT22;1912;51.358;12.282;2022-07-23T12:59:06;23.10;1.00
3794;DHT22;1912;51.358;12.282;2022-07-23T13:01:39;23.80;1.00
3794;DHT22;1912;51.358;12.282;2022-07-23T13:04:11;24.20;1.00
3794;DHT22;1912;51.358;12.282;2022-07-23T13:06:44;24.70;1.00
3794;DHT22;1912;51.358;12.282;2022-07-23T13:09:16;25.30;1.00
3794;DHT22;1912;51.358;12.282;2022-07-23T13:11:48;25.70;1.00
3794;DHT22;1912;51.358;12.282;2022-07-23T13:14:15;26.20;1.00
3794;DHT22;1912;51.358;12.282;2022-07-23T13:16:43;26.40;1.00
3794;DHT22;1912;51.358;12.282;2022-07-23T13:19:09;26.50;1.00
3794;DHT22;1912;51.358;12.282;2022-07-23T13:21:35;27.00;1.00
3794;DHT22;1912;51.358;12.282;2022-07-23T13:24:01;26.50;1.00
3794;DHT22;1912;51.358;12.282;2022-07-23T13:26:27;27.10;1.00
3794;DHT22;1912;51.358;12.282;2022-07-23T13:28:53;27.30;1.00
3794;DHT22;1912;51.358;12.282;2022-07-23T13:31:19;27.50;1.00
3794;DHT22;1912;51.358;12.282;2022-07-23T13:33:45;27.80;1.00
3794;DHT22;1912;51.358;12.282;2022-07-23T13:36:11;27.40;1.00
3794;DHT22;1912;51.358;12.282;2022-07-23T13:38:37;28.20;1.00
3794;DHT22;1912;51.358;12.282;2022-07-23T13:41:04;28.80;1.00
3794;DHT22;1912;51.358;12.282;2022-07-23T13:43:30;29.00;1.00
3794;DHT22;1912;51.358;12.282;2022-07-23T13:45:56;28.70;1.00
3794;DHT22;1912;51.358;12.282;2022-07-23T13:48:22;28.30;1.00
3794;DHT22;1912;51.358;12.282;2022-07-23T13:50:49;28.00;1.00
3794;DHT22;1912;51.358;12.282;2022-07-23T13:53:17;27.90;1.00
3794;DHT22;1912;51.358;12.282;2022-07-23T13:55:45;28.50;1.00
3794;DHT22;1912;51.358;12.282;2022-07-23T13:58:11;28.50;1.00
3794;DHT22;1912;51.358;12.282;2022-07-23T14:00:40;28.40;1.00
3794;DHT22;1912;51.358;12.282;2022-07-23T14:03:07;28.20;1.00
3794;DHT22;1912;51.358;12.282;2022-07-23T14:05:33;28.00;1.00
3794;DHT22;1912;51.358;12.282;2022-07-23T14:07:59;28.30;1.00
3794;DHT22;1912;51.358;12.282;2022-07-23T14:10:25;28.30;1.00
3794;DHT22;1912;51.358;12.282;2022-07-23T14:12:52;28.20;1.00
3794;DHT22;1912;51.358;12.282;2022-07-23T14:15:20;28.00;1.00
3794;DHT22;1912;51.358;12.282;2022-07-23T14:17:46;27.80;1.00
3794;DHT22;1912;51.358;12.282;2022-07-23T14:20:13;28.20;1.00
3794;DHT22;1912;51.358;12.282;2022-07-23T14:22:39;28.70;1.00
3794;DHT22;1912;51.358;12.282;2022-07-23T14:25:06;29.10;1.00
3794;DHT22;1912;51.358;12.282;2022-07-23T14:27:33;28.60;1.00
3794;DHT22;1912;51.358;12.282;2022-07-23T14:33:40;29.00;1.00
3794;DHT22;1912;51.358;12.282;2022-07-23T14:36:05;29.30;1.00
3794;DHT22;1912;51.358;12.282;2022-07-23T14:38:31;29.00;1.00
3794;DHT22;1912;51.358;12.282;2022-07-23T14:40:57;28.70;1.00
3794;DHT22;1912;51.358;12.282;2022-07-23T14:43:23;28.50;1.00
3794;DHT22;1912;51.358;12.282;2022-07-23T14:45:48;28.60;1.00
3794;DHT22;1912;51.358;12.282;2022-07-23T14:48:14;28.50;1.00
3794;DHT22;1912;51.358;12.282;2022-07-23T14:50:40;28.40;1.00
3794;DHT22;1912;51.358;12.282;2022-07-23T14:53:06;29.10;1.00
3794;DHT22;1912;51.358;12.282;2022-07-23T14:55:32;29.10;1.00
3794;DHT22;1912;51.358;12.282;2022-07-23T14:57:57;29.50;1.00
3794;DHT22;1912;51.358;12.282;2022-07-23T15:00:23;29.40;1.00
3794;DHT22;1912;51.358;12.282;2022-07-23T15:02:49;29.30;1.00
3794;DHT22;1912;51.358;12.282;2022-07-23T15:05:15;29.40;1.00
3794;DHT22;1912;51.358;12.282;2022-07-23T15:07:41;29.20;1.00
3794;DHT22;1912;51.358;12.282;2022-07-23T15:10:07;29.50;1.00
3794;DHT22;1912;51.358;12.282;2022-07-23T15:12:33;29.80;1.00
3794;DHT22;1912;51.358;12.282;2022-07-23T15:14:59;29.50;1.00
3794;DHT22;1912;51.358;12.282;2022-07-23T15:17:24;29.80;1.00
3794;DHT22;1912;51.358;12.282;2022-07-23T15:19:50;29.80;1.00
3794;DHT22;1912;51.358;12.282;2022-07-23T15:22:16;29.40;1.00
3794;DHT22;1912;51.358;12.282;2022-07-23T15:24:42;29.30;1.00
3794;DHT22;1912;51.358;12.282;2022-07-23T15:27:08;29.40;1.00
3794;DHT22;1912;51.358;12.282;2022-07-23T15:29:34;30.00;1.00
3794;DHT22;1912;51.358;12.282;2022-07-23T15:32:00;29.50;1.00
3794;DHT22;1912;51.358;12.282;2022-07-23T15:34:26;29.60;1.00
3794;DHT22;1912;51.358;12.282;2022-07-23T15:36:52;29.90;1.00
3794;DHT22;1912;51.358;12.282;2022-07-23T15:39:17;30.20;1.00
3794;DHT22;1912;51.358;12.282;2022-07-23T15:41:43;30.10;1.00
3794;DHT22;1912;51.358;12.282;2022-07-23T15:44:09;30.10;1.00
3794;DHT22;1912;51.358;12.282;2022-07-23T15:46:35;30.00;1.00
3794;DHT22;1912;51.358;12.282;2022-07-23T15:49:01;29.90;1.00
3794;DHT22;1912;51.358;12.282;2022-07-23T15:51:27;29.70;1.00
3794;DHT22;1912;51.358;12.282;2022-07-23T15:53:54;29.60;1.00
3794;DHT22;1912;51.358;12.282;2022-07-23T15:56:20;29.70;1.00
3794;DHT22;1912;51.358;12.282;2022-07-23T15:58:45;29.80;1.00
3794;DHT22;1912;51.358;12.282;2022-07-23T16:01:11;29.80;1.00
3794;DHT22;1912;51.358;12.282;2022-07-23T16:03:37;29.80;1.00
3794;DHT22;1912;51.358;12.282;2022-07-23T16:06:05;28.50;1.00
3794;DHT22;1912;51.358;12.282;2022-07-23T16:08:31;29.10;1.00
3794;DHT22;1912;51.358;12.282;2022-07-23T16:10:57;29.40;1.00
3794;DHT22;1912;51.358;12.282;2022-07-23T16:13:25;29.40;1.00
3794;DHT22;1912;51.358;12.282;2022-07-23T16:15:51;29.40;1.00
3794;DHT22;1912;51.358;12.282;2022-07-23T16:18:19;29.30;1.00
3794;DHT22;1912;51.358;12.282;2022-07-23T16:20:48;29.50;1.00
3794;DHT22;1912;51.358;12.282;2022-07-23T16:23:15;29.70;1.00
3794;DHT22;1912;51.358;12.282;2022-07-23T16:25:41;29.40;1.00
3794;DHT22;1912;51.358;12.282;2022-07-23T16:28:07;29.20;1.00
3794;DHT22;1912;51.358;12.282;2022-07-23T16:30:33;28.80;1.00
3794;DHT22;1912;51.358;12.282;2022-07-23T16:33:00;28.90;1.00
3794;DHT22;1912;51.358;12.282;2022-07-23T16:35:26;28.90;1.00
3794;DHT22;1912;51.358;12.282;2022-07-23T16:37:51;29.30;1.00
3794;DHT22;1912;51.358;12.282;2022-07-23T16:40:18;29.50;1.00
3794;DHT22;1912;51.358;12.282;2022-07-23T16:42:43;29.70;1.00
3794;DHT22;1912;51.358;12.282;2022-07-23T16:45:10;30.10;1.00
3794;DHT22;1912;51.358;12.282;2022-07-23T16:47:36;30.40;1.00
3794;DHT22;1912;51.358;12.282;2022-07-23T16:50:04;30.30;1.00
3794;DHT22;1912;51.358;12.282;2022-07-23T16:52:31;30.20;1.00
3794;DHT22;1912;51.358;12.282;2022-07-23T16:54:57;30.40;1.00
3794;DHT22;1912;51.358;12.282;2022-07-23T16:57:23;30.10;1.00
3794;DHT22;1912;51.358;12.282;2022-07-23T16:59:49;30.20;1.00
3794;DHT22;1912;51.358;12.282;2022-07-23T17:02:15;29.70;1.00
3794;DHT22;1912;51.358;12.282;2022-07-23T17:04:41;29.60;1.00
3794;DHT22;1912;51.358;12.282;2022-07-23T17:07:07;29.50;1.00
3794;DHT22;1912;51.358;12.282;2022-07-23T17:09:34;28.90;1.00